Sneads Ferry, North Carolina
Current Conditions -  °F | °C
As of 7:56 AM on Thursday 30 Oct 2014 (Local Time) from KNCA Reporting Station
Overcast Overcast  
Wind Chill: 58°   Ceiling: 3400
Heat Index: 58°   Visibility: 10mi
Dew Point: 53°   Wind: 8mph
Humidity: 84%   Direction: 20°NNE
Pressure: 29.99"   Gusts: NA
Location:  34.55°N, 77.4°W
Report Text: KNCA 301156Z AUTO 02007KT 10SM OVC034 14/12 A2999 RMK AO2 SLP158 60003 70011 T01440117 10189 20144 51016
Loading
Personal Weather Stations






























Interactive Weather Map
Tropical Storm Tracking
New forecast layout! Learn more

10-Day Weather Forecast

Advertisements
Track Severe Weather on mobile